Accueil
METAR-TAF:

METAR-TAF

Aéroports :

Aéroport international Mehrabad

Téhéran, Iran

latitude: 35-41N, longitude: 051-21E, altitude: 1204 m

Observation

Le bulletin a été fait il y a 39 minutes, à 03:30 UTC
Vent calme
Température 30°C
Humidité 19%
Pression 1014 hPa
Visibilité 10 km ou plus
pas de nuages en-dessous de 1500 mètres et pas de cumulonimbus.

METAR: OIII 250330Z 00000KT CAVOK 30/04 Q1014 A2995

Heure: 08:39 (04:09 UTC)

Prévision

Le bulletin a été fait il y a 5 heures et 9 minutes, à 23:00 UTC
Prévision valable du 25 à 00 UTC au 26 à 06 UTC
Vent 8 kt de ouest
Visibilité: 8000 m

TAF: OIII 242300Z 2500/2606 28004MPS 8000 NSC

Observations et prévisions météorologiques de plus de 4000 aéroports (messages METAR et TAF).

Les stations disponibles sont représentées par des disques jaunes et rouges sur la carte.

Passer la souris dessus pour voir le nom de la station.

Cliquer dessus pour voir les observations et prévisions météorologiques.

Pour changer de carte: cliquez sur les boutons verts avec une croix noire pour zoomer, sur le bouton vert avec un tiret pour effectuer un zoom arrière, ou sur les flèches vertes pour les cartes adjacentes.


METAR-TAF: